sensor_id;sensor_type;location;lat;lon;timestamp;pressure;altitude;pressure_sealevel;temperature;humidity
70488;BME280;57976;48.174;16.370;2022-08-19T00:00:29;98418.42;;;25.09;56.33
70488;BME280;57976;48.174;16.370;2022-08-19T00:02:34;98414.24;;;25.10;56.22
70488;BME280;57976;48.174;16.370;2022-08-19T00:04:39;98416.11;;;25.12;56.20
70488;BME280;57976;48.174;16.370;2022-08-19T00:06:45;98413.29;;;25.13;55.88
70488;BME280;57976;48.174;16.370;2022-08-19T00:08:50;98415.98;;;25.14;55.78
70488;BME280;57976;48.174;16.370;2022-08-19T00:10:55;98418.77;;;25.14;55.57
70488;BME280;57976;48.174;16.370;2022-08-19T00:13:00;98417.87;;;25.15;55.36
70488;BME280;57976;48.174;16.370;2022-08-19T00:15:06;98423.24;;;25.19;55.63
70488;BME280;57976;48.174;16.370;2022-08-19T00:17:15;98419.83;;;25.23;55.62
70488;BME280;57976;48.174;16.370;2022-08-19T00:19:21;98414.91;;;25.23;55.76
70488;BME280;57976;48.174;16.370;2022-08-19T00:21:26;98415.29;;;25.17;55.45
70488;BME280;57976;48.174;16.370;2022-08-19T00:23:31;98415.18;;;25.14;55.82
70488;BME280;57976;48.174;16.370;2022-08-19T00:25:36;98416.81;;;25.10;55.94
70488;BME280;57976;48.174;16.370;2022-08-19T00:27:41;98413.69;;;25.09;56.10
70488;BME280;57976;48.174;16.370;2022-08-19T00:29:46;98413.94;;;25.08;55.99
70488;BME280;57976;48.174;16.370;2022-08-19T00:31:56;98411.48;;;25.08;56.07
70488;BME280;57976;48.174;16.370;2022-08-19T00:34:01;98410.10;;;25.07;56.17
70488;BME280;57976;48.174;16.370;2022-08-19T00:36:09;98403.87;;;25.04;56.67
70488;BME280;57976;48.174;16.370;2022-08-19T00:38:14;98401.55;;;25.01;56.79
70488;BME280;57976;48.174;16.370;2022-08-19T00:40:19;98410.77;;;25.00;57.48
70488;BME280;57976;48.174;16.370;2022-08-19T00:42:24;98411.33;;;24.98;57.56
70488;BME280;57976;48.174;16.370;2022-08-19T00:44:30;98400.70;;;24.98;57.62
70488;BME280;57976;48.174;16.370;2022-08-19T00:46:36;98402.23;;;24.97;57.59
70488;BME280;57976;48.174;16.370;2022-08-19T00:48:42;98400.68;;;24.96;58.10
70488;BME280;57976;48.174;16.370;2022-08-19T00:50:49;98399.71;;;24.97;57.89
70488;BME280;57976;48.174;16.370;2022-08-19T00:52:55;98400.39;;;24.98;58.01
70488;BME280;57976;48.174;16.370;2022-08-19T00:55:01;98403.00;;;25.00;57.86
70488;BME280;57976;48.174;16.370;2022-08-19T00:57:10;98409.67;;;25.05;57.95
70488;BME280;57976;48.174;16.370;2022-08-19T00:59:16;98403.52;;;25.06;57.72
70488;BME280;57976;48.174;16.370;2022-08-19T01:01:43;98402.89;;;25.06;58.14
70488;BME280;57976;48.174;16.370;2022-08-19T01:03:48;98399.70;;;25.03;58.07
70488;BME280;57976;48.174;16.370;2022-08-19T01:06:01;98395.81;;;24.98;58.80
70488;BME280;57976;48.174;16.370;2022-08-19T01:08:07;98394.45;;;24.92;59.31
70488;BME280;57976;48.174;16.370;2022-08-19T01:10:16;98394.73;;;24.86;59.76
70488;BME280;57976;48.174;16.370;2022-08-19T01:12:22;98403.13;;;24.80;60.44
70488;BME280;57976;48.174;16.370;2022-08-19T01:14:27;98405.79;;;24.74;60.51
70488;BME280;57976;48.174;16.370;2022-08-19T01:16:33;98412.48;;;24.68;60.92
70488;BME280;57976;48.174;16.370;2022-08-19T01:18:41;98417.72;;;24.64;61.65
70488;BME280;57976;48.174;16.370;2022-08-19T01:20:47;98408.08;;;24.58;61.78
70488;BME280;57976;48.174;16.370;2022-08-19T01:22:54;98404.18;;;24.53;62.39
70488;BME280;57976;48.174;16.370;2022-08-19T01:24:59;98401.35;;;24.49;62.52
70488;BME280;57976;48.174;16.370;2022-08-19T01:27:06;98407.35;;;24.45;62.34
70488;BME280;57976;48.174;16.370;2022-08-19T01:29:14;98409.20;;;24.43;62.51
70488;BME280;57976;48.174;16.370;2022-08-19T01:31:21;98415.73;;;24.43;62.34
70488;BME280;57976;48.174;16.370;2022-08-19T01:33:31;98418.31;;;24.40;62.01
70488;BME280;57976;48.174;16.370;2022-08-19T01:35:36;98415.50;;;24.35;62.02
70488;BME280;57976;48.174;16.370;2022-08-19T01:37:50;98421.73;;;24.33;62.16
70488;BME280;57976;48.174;16.370;2022-08-19T01:39:56;98420.41;;;24.31;62.15
70488;BME280;57976;48.174;16.370;2022-08-19T01:42:01;98421.48;;;24.28;62.15
70488;BME280;57976;48.174;16.370;2022-08-19T01:44:07;98420.07;;;24.26;62.06
70488;BME280;57976;48.174;16.370;2022-08-19T01:46:22;98420.75;;;24.22;62.15
70488;BME280;57976;48.174;16.370;2022-08-19T01:48:28;98426.44;;;24.23;62.24
70488;BME280;57976;48.174;16.370;2022-08-19T01:50:37;98425.91;;;24.23;62.51
70488;BME280;57976;48.174;16.370;2022-08-19T01:52:43;98428.66;;;24.22;62.52
70488;BME280;57976;48.174;16.370;2022-08-19T01:54:48;98426.16;;;24.17;62.26
70488;BME280;57976;48.174;16.370;2022-08-19T01:56:55;98423.87;;;24.06;62.37
70488;BME280;57976;48.174;16.370;2022-08-19T01:59:04;98429.66;;;23.93;62.31
70488;BME280;57976;48.174;16.370;2022-08-19T02:01:10;98441.94;;;23.83;62.33
70488;BME280;57976;48.174;16.370;2022-08-19T02:03:15;98452.80;;;23.74;62.16
70488;BME280;57976;48.174;16.370;2022-08-19T02:05:20;98458.71;;;23.66;62.13
70488;BME280;57976;48.174;16.370;2022-08-19T02:07:25;98468.70;;;23.60;62.17
70488;BME280;57976;48.174;16.370;2022-08-19T02:09:31;98472.08;;;23.55;62.13
70488;BME280;57976;48.174;16.370;2022-08-19T02:11:38;98472.35;;;23.50;62.01
70488;BME280;57976;48.174;16.370;2022-08-19T02:13:43;98469.96;;;23.47;61.70
70488;BME280;57976;48.174;16.370;2022-08-19T02:15:47;98469.06;;;23.42;61.38
70488;BME280;57976;48.174;16.370;2022-08-19T02:17:52;98466.34;;;23.36;61.25
70488;BME280;57976;48.174;16.370;2022-08-19T02:19:57;98468.70;;;23.31;61.19
70488;BME280;57976;48.174;16.370;2022-08-19T02:22:02;98468.35;;;23.27;60.89
70488;BME280;57976;48.174;16.370;2022-08-19T02:24:07;98462.21;;;23.24;60.56
70488;BME280;57976;48.174;16.370;2022-08-19T02:26:12;98459.20;;;23.23;60.48
70488;BME280;57976;48.174;16.370;2022-08-19T02:28:17;98455.21;;;23.24;60.62
70488;BME280;57976;48.174;16.370;2022-08-19T02:30:23;98457.67;;;23.23;60.85
70488;BME280;57976;48.174;16.370;2022-08-19T02:32:27;98465.21;;;23.24;61.03
70488;BME280;57976;48.174;16.370;2022-08-19T02:34:32;98468.20;;;23.22;61.02
70488;BME280;57976;48.174;16.370;2022-08-19T02:36:37;98465.30;;;23.22;61.31
70488;BME280;57976;48.174;16.370;2022-08-19T02:38:46;98464.98;;;23.22;62.00
70488;BME280;57976;48.174;16.370;2022-08-19T02:41:00;98454.02;;;23.21;62.26
70488;BME280;57976;48.174;16.370;2022-08-19T02:43:07;98448.14;;;23.19;62.81
70488;BME280;57976;48.174;16.370;2022-08-19T02:45:13;98462.27;;;23.17;63.36
70488;BME280;57976;48.174;16.370;2022-08-19T02:47:18;98463.88;;;23.15;63.78
70488;BME280;57976;48.174;16.370;2022-08-19T02:49:23;98463.46;;;23.15;64.15
70488;BME280;57976;48.174;16.370;2022-08-19T02:51:32;98460.19;;;23.15;63.84
70488;BME280;57976;48.174;16.370;2022-08-19T02:53:37;98457.10;;;23.14;64.55
70488;BME280;57976;48.174;16.370;2022-08-19T02:55:46;98458.61;;;23.15;64.91
70488;BME280;57976;48.174;16.370;2022-08-19T02:57:51;98464.42;;;23.15;64.98
70488;BME280;57976;48.174;16.370;2022-08-19T02:59:58;98468.38;;;23.16;65.60
70488;BME280;57976;48.174;16.370;2022-08-19T03:02:04;98471.40;;;23.16;65.59
70488;BME280;57976;48.174;16.370;2022-08-19T03:04:10;98471.21;;;23.17;65.56
70488;BME280;57976;48.174;16.370;2022-08-19T03:06:16;98471.31;;;23.18;65.67
70488;BME280;57976;48.174;16.370;2022-08-19T03:08:20;98463.54;;;23.21;65.61
70488;BME280;57976;48.174;16.370;2022-08-19T03:10:25;98461.86;;;23.23;65.59
70488;BME280;57976;48.174;16.370;2022-08-19T03:12:36;98465.86;;;23.27;65.75
70488;BME280;57976;48.174;16.370;2022-08-19T03:14:41;98466.86;;;23.31;65.89
70488;BME280;57976;48.174;16.370;2022-08-19T03:16:48;98465.45;;;23.34;65.58
70488;BME280;57976;48.174;16.370;2022-08-19T03:18:55;98472.78;;;23.37;65.66
70488;BME280;57976;48.174;16.370;2022-08-19T03:21:00;98474.41;;;23.42;65.73
70488;BME280;57976;48.174;16.370;2022-08-19T03:23:05;98470.46;;;23.46;65.45
70488;BME280;57976;48.174;16.370;2022-08-19T03:25:11;98471.48;;;23.50;65.29
70488;BME280;57976;48.174;16.370;2022-08-19T03:27:15;98472.46;;;23.52;65.23
70488;BME280;57976;48.174;16.370;2022-08-19T03:29:20;98467.92;;;23.56;65.29
70488;BME280;57976;48.174;16.370;2022-08-19T03:31:35;98475.10;;;23.56;65.94
70488;BME280;57976;48.174;16.370;2022-08-19T03:33:54;98484.84;;;23.49;66.33
70488;BME280;57976;48.174;16.370;2022-08-19T03:36:07;98493.52;;;23.43;66.82
70488;BME280;57976;48.174;16.370;2022-08-19T03:38:13;98497.66;;;23.43;67.04
70488;BME280;57976;48.174;16.370;2022-08-19T03:40:17;98501.73;;;23.44;67.19
70488;BME280;57976;48.174;16.370;2022-08-19T03:42:24;98505.97;;;23.42;67.76
70488;BME280;57976;48.174;16.370;2022-08-19T03:44:48;98504.90;;;23.38;67.38
70488;BME280;57976;48.174;16.370;2022-08-19T03:46:55;98505.96;;;23.34;68.14
70488;BME280;57976;48.174;16.370;2022-08-19T03:49:03;98513.23;;;23.28;68.26
70488;BME280;57976;48.174;16.370;2022-08-19T03:51:17;98513.45;;;23.24;68.14
70488;BME280;57976;48.174;16.370;2022-08-19T03:53:35;98519.02;;;23.19;68.22
70488;BME280;57976;48.174;16.370;2022-08-19T03:55:42;98523.59;;;23.16;68.15
70488;BME280;57976;48.174;16.370;2022-08-19T03:57:47;98524.45;;;23.14;68.44
70488;BME280;57976;48.174;16.370;2022-08-19T03:59:52;98526.29;;;23.12;68.71
70488;BME280;57976;48.174;16.370;2022-08-19T04:01:59;98523.20;;;23.11;68.54
70488;BME280;57976;48.174;16.370;2022-08-19T04:04:07;98522.74;;;23.10;68.76
70488;BME280;57976;48.174;16.370;2022-08-19T04:06:16;98524.56;;;23.08;68.47
70488;BME280;57976;48.174;16.370;2022-08-19T04:08:21;98529.34;;;23.08;68.36
70488;BME280;57976;48.174;16.370;2022-08-19T04:10:26;98528.21;;;23.08;68.40
70488;BME280;57976;48.174;16.370;2022-08-19T04:12:30;98529.25;;;23.07;68.35
70488;BME280;57976;48.174;16.370;2022-08-19T04:14:36;98529.48;;;23.07;68.40
70488;BME280;57976;48.174;16.370;2022-08-19T04:16:40;98526.95;;;23.09;68.48
70488;BME280;57976;48.174;16.370;2022-08-19T04:18:46;98524.88;;;23.09;68.31
70488;BME280;57976;48.174;16.370;2022-08-19T04:20:51;98536.05;;;23.10;68.29
70488;BME280;57976;48.174;16.370;2022-08-19T04:22:57;98540.91;;;23.12;68.35
70488;BME280;57976;48.174;16.370;2022-08-19T04:25:02;98543.13;;;23.15;67.95
70488;BME280;57976;48.174;16.370;2022-08-19T04:27:07;98543.21;;;23.16;68.02
70488;BME280;57976;48.174;16.370;2022-08-19T04:29:14;98545.00;;;23.19;67.82
70488;BME280;57976;48.174;16.370;2022-08-19T04:31:22;98544.30;;;23.22;68.06
70488;BME280;57976;48.174;16.370;2022-08-19T04:33:27;98541.08;;;23.25;67.81
70488;BME280;57976;48.174;16.370;2022-08-19T04:35:37;98545.38;;;23.31;67.79
70488;BME280;57976;48.174;16.370;2022-08-19T04:37:43;98549.64;;;23.35;67.64
70488;BME280;57976;48.174;16.370;2022-08-19T04:39:48;98553.91;;;23.40;67.73
70488;BME280;57976;48.174;16.370;2022-08-19T04:41:53;98554.63;;;23.45;67.65
70488;BME280;57976;48.174;16.370;2022-08-19T04:43:57;98555.13;;;23.53;67.54
70488;BME280;57976;48.174;16.370;2022-08-19T04:46:09;98551.34;;;23.59;67.47
70488;BME280;57976;48.174;16.370;2022-08-19T04:48:32;98551.77;;;23.65;67.35
70488;BME280;57976;48.174;16.370;2022-08-19T04:50:41;98552.23;;;23.71;67.35
70488;BME280;57976;48.174;16.370;2022-08-19T04:52:46;98557.36;;;23.75;67.09
70488;BME280;57976;48.174;16.370;2022-08-19T04:54:54;98563.20;;;23.79;67.03
70488;BME280;57976;48.174;16.370;2022-08-19T04:56:59;98565.06;;;23.83;66.99
70488;BME280;57976;48.174;16.370;2022-08-19T04:59:03;98566.48;;;23.88;66.77
70488;BME280;57976;48.174;16.370;2022-08-19T05:01:09;98565.05;;;23.94;66.61
70488;BME280;57976;48.174;16.370;2022-08-19T05:03:15;98557.36;;;23.99;66.45
70488;BME280;57976;48.174;16.370;2022-08-19T05:05:20;98560.24;;;24.02;66.42
70488;BME280;57976;48.174;16.370;2022-08-19T05:07:25;98562.66;;;24.03;66.23
70488;BME280;57976;48.174;16.370;2022-08-19T05:09:30;98568.92;;;24.03;66.54
70488;BME280;57976;48.174;16.370;2022-08-19T05:11:55;98571.02;;;24.02;66.29
70488;BME280;57976;48.174;16.370;2022-08-19T05:14:01;98575.67;;;24.06;66.31
70488;BME280;57976;48.174;16.370;2022-08-19T05:16:06;98576.82;;;24.08;66.12
70488;BME280;57976;48.174;16.370;2022-08-19T05:18:11;98575.59;;;24.10;66.16
70488;BME280;57976;48.174;16.370;2022-08-19T05:20:16;98576.98;;;24.11;66.18
70488;BME280;57976;48.174;16.370;2022-08-19T05:22:20;98588.45;;;24.15;66.14
70488;BME280;57976;48.174;16.370;2022-08-19T05:24:26;98589.10;;;24.17;66.22
70488;BME280;57976;48.174;16.370;2022-08-19T05:26:31;98603.73;;;24.23;66.19
70488;BME280;57976;48.174;16.370;2022-08-19T05:28:36;98604.66;;;24.23;66.64
70488;BME280;57976;48.174;16.370;2022-08-19T05:30:40;98613.29;;;24.17;66.95
70488;BME280;57976;48.174;16.370;2022-08-19T05:32:51;98620.63;;;24.14;67.50
70488;BME280;57976;48.174;16.370;2022-08-19T05:34:58;98622.02;;;24.08;68.21
70488;BME280;57976;48.174;16.370;2022-08-19T05:37:04;98629.86;;;24.02;68.59
70488;BME280;57976;48.174;16.370;2022-08-19T05:39:14;98625.92;;;23.96;68.74
70488;BME280;57976;48.174;16.370;2022-08-19T05:41:20;98632.40;;;23.93;68.70
70488;BME280;57976;48.174;16.370;2022-08-19T05:43:25;98641.81;;;23.90;68.98
70488;BME280;57976;48.174;16.370;2022-08-19T05:45:30;98648.10;;;23.86;69.44
70488;BME280;57976;48.174;16.370;2022-08-19T05:47:35;98659.61;;;23.82;69.43
70488;BME280;57976;48.174;16.370;2022-08-19T05:49:45;98677.23;;;23.78;70.22
70488;BME280;57976;48.174;16.370;2022-08-19T05:51:51;98676.55;;;23.73;70.57
70488;BME280;57976;48.174;16.370;2022-08-19T05:53:55;98666.70;;;23.71;70.38
70488;BME280;57976;48.174;16.370;2022-08-19T05:56:05;98672.51;;;23.71;70.42
70488;BME280;57976;48.174;16.370;2022-08-19T05:58:10;98681.39;;;23.71;70.84
70488;BME280;57976;48.174;16.370;2022-08-19T06:00:15;98674.35;;;23.71;70.71
70488;BME280;57976;48.174;16.370;2022-08-19T06:02:26;98683.77;;;23.71;70.63
70488;BME280;57976;48.174;16.370;2022-08-19T06:04:31;98688.21;;;23.73;70.82
70488;BME280;57976;48.174;16.370;2022-08-19T06:06:36;98709.71;;;23.75;71.08
70488;BME280;57976;48.174;16.370;2022-08-19T06:08:41;98693.29;;;23.75;70.87
70488;BME280;57976;48.174;16.370;2022-08-19T06:10:46;98691.19;;;23.73;70.70
70488;BME280;57976;48.174;16.370;2022-08-19T06:12:50;98688.98;;;23.75;70.62
70488;BME280;57976;48.174;16.370;2022-08-19T06:14:55;98695.87;;;23.79;70.77
70488;BME280;57976;48.174;16.370;2022-08-19T06:17:05;98699.46;;;23.82;70.47
70488;BME280;57976;48.174;16.370;2022-08-19T06:19:14;98699.23;;;23.85;70.15
70488;BME280;57976;48.174;16.370;2022-08-19T06:21:20;98700.68;;;23.88;70.10
70488;BME280;57976;48.174;16.370;2022-08-19T06:23:25;98691.03;;;23.89;70.17
70488;BME280;57976;48.174;16.370;2022-08-19T06:25:31;98693.23;;;23.91;70.04
70488;BME280;57976;48.174;16.370;2022-08-19T06:27:36;98683.52;;;23.92;69.85
70488;BME280;57976;48.174;16.370;2022-08-19T06:29:51;98683.73;;;23.92;69.85
70488;BME280;57976;48.174;16.370;2022-08-19T06:31:58;98677.36;;;23.98;69.64
70488;BME280;57976;48.174;16.370;2022-08-19T06:34:04;98673.55;;;24.03;69.26
70488;BME280;57976;48.174;16.370;2022-08-19T06:36:16;98676.11;;;24.09;69.20
70488;BME280;57976;48.174;16.370;2022-08-19T06:38:21;98680.86;;;24.17;69.10
70488;BME280;57976;48.174;16.370;2022-08-19T06:40:26;98681.02;;;24.27;68.91
70488;BME280;57976;48.174;16.370;2022-08-19T06:42:31;98683.30;;;24.34;68.52
70488;BME280;57976;48.174;16.370;2022-08-19T06:44:40;98692.23;;;24.40;68.34
70488;BME280;57976;48.174;16.370;2022-08-19T06:46:47;98689.66;;;24.42;67.97
70488;BME280;57976;48.174;16.370;2022-08-19T06:48:58;98689.66;;;24.47;67.86
70488;BME280;57976;48.174;16.370;2022-08-19T06:51:05;98684.93;;;24.49;67.91
70488;BME280;57976;48.174;16.370;2022-08-19T06:53:12;98685.13;;;24.55;67.88
70488;BME280;57976;48.174;16.370;2022-08-19T06:55:18;98678.81;;;24.57;67.64
70488;BME280;57976;48.174;16.370;2022-08-19T06:57:23;98676.92;;;24.61;67.38
70488;BME280;57976;48.174;16.370;2022-08-19T06:59:28;98664.47;;;24.63;67.04
70488;BME280;57976;48.174;16.370;2022-08-19T07:01:35;98661.80;;;24.67;67.08
70488;BME280;57976;48.174;16.370;2022-08-19T07:03:40;98657.55;;;24.69;67.08
70488;BME280;57976;48.174;16.370;2022-08-19T07:05:45;98665.98;;;24.75;66.91
70488;BME280;57976;48.174;16.370;2022-08-19T07:07:50;98670.92;;;24.81;66.74
70488;BME280;57976;48.174;16.370;2022-08-19T07:09:55;98674.65;;;24.86;66.63
70488;BME280;57976;48.174;16.370;2022-08-19T07:12:07;98677.57;;;24.87;66.53
70488;BME280;57976;48.174;16.370;2022-08-19T07:14:14;98673.70;;;24.94;66.47
70488;BME280;57976;48.174;16.370;2022-08-19T07:16:23;98670.76;;;24.99;66.30
70488;BME280;57976;48.174;16.370;2022-08-19T07:18:34;98663.59;;;25.02;65.94
70488;BME280;57976;48.174;16.370;2022-08-19T07:20:42;98657.88;;;24.99;65.93
70488;BME280;57976;48.174;16.370;2022-08-19T07:22:46;98653.19;;;24.99;65.86
70488;BME280;57976;48.174;16.370;2022-08-19T07:24:51;98651.99;;;25.03;65.74
70488;BME280;57976;48.174;16.370;2022-08-19T07:26:58;98655.89;;;25.11;65.63
70488;BME280;57976;48.174;16.370;2022-08-19T07:29:03;98651.64;;;25.21;65.59
70488;BME280;57976;48.174;16.370;2022-08-19T07:31:09;98645.57;;;25.28;65.17
70488;BME280;57976;48.174;16.370;2022-08-19T07:33:15;98644.27;;;25.32;64.80
70488;BME280;57976;48.174;16.370;2022-08-19T07:35:20;98633.75;;;25.33;64.94
70488;BME280;57976;48.174;16.370;2022-08-19T07:37:25;98635.66;;;25.39;64.86
70488;BME280;57976;48.174;16.370;2022-08-19T07:39:37;98640.67;;;25.45;64.49
70488;BME280;57976;48.174;16.370;2022-08-19T07:41:42;98642.73;;;25.51;64.29
70488;BME280;57976;48.174;16.370;2022-08-19T07:43:49;98632.15;;;25.57;64.37
70488;BME280;57976;48.174;16.370;2022-08-19T07:45:54;98631.05;;;25.63;64.07
70488;BME280;57976;48.174;16.370;2022-08-19T07:48:00;98613.52;;;25.67;63.87
70488;BME280;57976;48.174;16.370;2022-08-19T07:50:09;98604.64;;;25.75;63.96
70488;BME280;57976;48.174;16.370;2022-08-19T07:52:14;98597.78;;;25.85;63.54
70488;BME280;57976;48.174;16.370;2022-08-19T07:54:20;98602.50;;;25.95;63.06
70488;BME280;57976;48.174;16.370;2022-08-19T07:56:25;98598.34;;;26.03;63.02
70488;BME280;57976;48.174;16.370;2022-08-19T07:58:30;98600.00;;;26.13;62.74
70488;BME280;57976;48.174;16.370;2022-08-19T08:00:36;98606.25;;;26.25;62.37
70488;BME280;57976;48.174;16.370;2022-08-19T08:02:41;98601.21;;;26.38;62.40
70488;BME280;57976;48.174;16.370;2022-08-19T08:04:49;98599.89;;;26.53;61.96
70488;BME280;57976;48.174;16.370;2022-08-19T08:06:55;98602.71;;;26.65;61.39
70488;BME280;57976;48.174;16.370;2022-08-19T08:09:02;98608.97;;;26.77;61.15
70488;BME280;57976;48.174;16.370;2022-08-19T08:11:10;98617.02;;;26.88;59.98
70488;BME280;57976;48.174;16.370;2022-08-19T08:13:19;98621.69;;;27.04;59.25
70488;BME280;57976;48.174;16.370;2022-08-19T08:15:24;98618.02;;;27.18;58.90
70488;BME280;57976;48.174;16.370;2022-08-19T08:17:30;98611.88;;;27.36;58.52
70488;BME280;57976;48.174;16.370;2022-08-19T08:19:55;98620.23;;;27.52;57.45
70488;BME280;57976;48.174;16.370;2022-08-19T08:22:01;98620.33;;;27.61;56.51
70488;BME280;57976;48.174;16.370;2022-08-19T08:24:06;98623.63;;;27.73;56.26
70488;BME280;57976;48.174;16.370;2022-08-19T08:26:11;98630.27;;;27.85;55.27
70488;BME280;57976;48.174;16.370;2022-08-19T08:28:19;98637.52;;;27.94;54.19
70488;BME280;57976;48.174;16.370;2022-08-19T08:30:27;98643.74;;;28.01;53.74
70488;BME280;57976;48.174;16.370;2022-08-19T08:32:36;98642.88;;;28.04;53.73
70488;BME280;57976;48.174;16.370;2022-08-19T08:34:41;98636.96;;;28.09;55.01
70488;BME280;57976;48.174;16.370;2022-08-19T08:36:47;98639.58;;;28.15;55.23
70488;BME280;57976;48.174;16.370;2022-08-19T08:38:52;98644.65;;;28.19;55.39
70488;BME280;57976;48.174;16.370;2022-08-19T08:41:09;98655.02;;;28.28;54.61
70488;BME280;57976;48.174;16.370;2022-08-19T08:43:24;98659.92;;;28.33;54.38
70488;BME280;57976;48.174;16.370;2022-08-19T08:45:38;98663.26;;;28.39;54.27
70488;BME280;57976;48.174;16.370;2022-08-19T08:47:50;98662.11;;;28.43;54.10
70488;BME280;57976;48.174;16.370;2022-08-19T08:50:00;98663.98;;;28.43;53.96
70488;BME280;57976;48.174;16.370;2022-08-19T08:52:11;98663.85;;;28.50;53.96
70488;BME280;57976;48.174;16.370;2022-08-19T08:54:20;98669.31;;;28.60;53.64
70488;BME280;57976;48.174;16.370;2022-08-19T08:56:26;98674.45;;;28.67;53.58
70488;BME280;57976;48.174;16.370;2022-08-19T08:58:39;98676.10;;;28.75;53.36
70488;BME280;57976;48.174;16.370;2022-08-19T09:00:48;98678.11;;;28.79;52.91
70488;BME280;57976;48.174;16.370;2022-08-19T09:02:54;98671.80;;;28.82;52.84
70488;BME280;57976;48.174;16.370;2022-08-19T09:05:00;98667.13;;;28.91;52.59
70488;BME280;57976;48.174;16.370;2022-08-19T09:07:18;98666.00;;;29.01;52.40
70488;BME280;57976;48.174;16.370;2022-08-19T09:09:42;98656.05;;;29.18;52.40
70488;BME280;57976;48.174;16.370;2022-08-19T09:11:59;98652.38;;;29.36;51.62
70488;BME280;57976;48.174;16.370;2022-08-19T09:14:14;98642.80;;;29.52;51.26
70488;BME280;57976;48.174;16.370;2022-08-19T09:16:41;98638.92;;;29.63;50.29
70488;BME280;57976;48.174;16.370;2022-08-19T09:18:49;98638.46;;;29.66;49.87
70488;BME280;57976;48.174;16.370;2022-08-19T09:20:57;98630.54;;;29.72;49.76
70488;BME280;57976;48.174;16.370;2022-08-19T09:23:02;98628.77;;;29.80;49.87
70488;BME280;57976;48.174;16.370;2022-08-19T09:25:12;98623.39;;;29.86;49.26
70488;BME280;57976;48.174;16.370;2022-08-19T09:27:19;98627.54;;;29.85;48.65
70488;BME280;57976;48.174;16.370;2022-08-19T09:29:24;98619.67;;;29.78;48.63
70488;BME280;57976;48.174;16.370;2022-08-19T09:31:30;98610.21;;;29.79;48.66
70488;BME280;57976;48.174;16.370;2022-08-19T09:33:36;98612.91;;;29.80;48.10
70488;BME280;57976;48.174;16.370;2022-08-19T09:35:41;98605.42;;;29.81;47.95
70488;BME280;57976;48.174;16.370;2022-08-19T09:37:57;98595.05;;;29.81;47.82
70488;BME280;57976;48.174;16.370;2022-08-19T09:40:04;98589.89;;;29.81;47.85
70488;BME280;57976;48.174;16.370;2022-08-19T09:42:10;98595.45;;;29.83;47.54
70488;BME280;57976;48.174;16.370;2022-08-19T09:44:23;98599.77;;;29.89;48.08
70488;BME280;57976;48.174;16.370;2022-08-19T09:46:30;98600.06;;;29.99;47.83
70488;BME280;57976;48.174;16.370;2022-08-19T09:48:36;98607.80;;;30.15;47.55
70488;BME280;57976;48.174;16.370;2022-08-19T09:50:42;98603.92;;;30.29;47.48
70488;BME280;57976;48.174;16.370;2022-08-19T09:52:55;98610.61;;;30.42;45.65
70488;BME280;57976;48.174;16.370;2022-08-19T09:55:01;98611.73;;;30.46;45.14
70488;BME280;57976;48.174;16.370;2022-08-19T09:57:11;98609.77;;;30.46;45.85
70488;BME280;57976;48.174;16.370;2022-08-19T09:59:16;98610.21;;;30.56;45.66
70488;BME280;57976;48.174;16.370;2022-08-19T10:01:23;98608.73;;;30.65;44.85
70488;BME280;57976;48.174;16.370;2022-08-19T10:03:30;98605.40;;;30.71;44.74
70488;BME280;57976;48.174;16.370;2022-08-19T10:05:36;98600.63;;;30.78;45.18
70488;BME280;57976;48.174;16.370;2022-08-19T10:07:41;98596.90;;;30.80;45.62
70488;BME280;57976;48.174;16.370;2022-08-19T10:09:46;98597.23;;;30.82;45.52
70488;BME280;57976;48.174;16.370;2022-08-19T10:11:50;98598.86;;;30.85;45.88
70488;BME280;57976;48.174;16.370;2022-08-19T10:13:59;98603.21;;;30.88;45.95
70488;BME280;57976;48.174;16.370;2022-08-19T10:16:07;98604.16;;;30.86;46.02
70488;BME280;57976;48.174;16.370;2022-08-19T10:18:14;98603.27;;;30.90;46.42
70488;BME280;57976;48.174;16.370;2022-08-19T10:20:19;98603.48;;;31.00;46.34
70488;BME280;57976;48.174;16.370;2022-08-19T10:22:24;98601.59;;;31.09;45.99
70488;BME280;57976;48.174;16.370;2022-08-19T10:24:29;98603.48;;;31.18;45.58
70488;BME280;57976;48.174;16.370;2022-08-19T10:26:36;98609.52;;;31.17;45.44
70488;BME280;57976;48.174;16.370;2022-08-19T10:28:42;98605.86;;;31.21;45.71
70488;BME280;57976;48.174;16.370;2022-08-19T10:30:50;98613.58;;;31.28;45.62
70488;BME280;57976;48.174;16.370;2022-08-19T10:32:56;98622.13;;;31.33;45.26
70488;BME280;57976;48.174;16.370;2022-08-19T10:35:00;98638.40;;;31.36;45.81
70488;BME280;57976;48.174;16.370;2022-08-19T10:37:09;98641.42;;;31.37;46.04
70488;BME280;57976;48.174;16.370;2022-08-19T10:39:18;98648.89;;;31.33;46.20
70488;BME280;57976;48.174;16.370;2022-08-19T10:41:29;98661.92;;;31.33;46.22
70488;BME280;57976;48.174;16.370;2022-08-19T10:43:41;98669.65;;;31.27;46.16
70488;BME280;57976;48.174;16.370;2022-08-19T10:45:52;98674.81;;;31.23;46.36
70488;BME280;57976;48.174;16.370;2022-08-19T10:47:58;98653.77;;;31.15;45.61
70488;BME280;57976;48.174;16.370;2022-08-19T10:50:04;98635.17;;;31.06;45.68
70488;BME280;57976;48.174;16.370;2022-08-19T10:52:10;98635.13;;;30.98;45.64
70488;BME280;57976;48.174;16.370;2022-08-19T10:54:23;98631.79;;;30.92;46.21
70488;BME280;57976;48.174;16.370;2022-08-19T10:56:37;98630.14;;;30.89;46.06
70488;BME280;57976;48.174;16.370;2022-08-19T10:58:42;98637.02;;;30.80;47.06
70488;BME280;57976;48.174;16.370;2022-08-19T11:00:53;98638.85;;;30.73;47.53
70488;BME280;57976;48.174;16.370;2022-08-19T11:02:58;98663.13;;;30.65;46.52
70488;BME280;57976;48.174;16.370;2022-08-19T11:05:04;98674.74;;;30.51;46.50